createdAt,value
2023-03-16T00:01:24.815Z,3.73
2023-03-16T00:04:27.511Z,3.63
2023-03-16T00:07:30.267Z,3.58
2023-03-16T00:10:32.876Z,3.67
2023-03-16T00:13:35.507Z,3.64
2023-03-16T00:16:38.158Z,3.72
2023-03-16T00:19:46.729Z,3.62
2023-03-16T00:22:49.765Z,3.49
2023-03-16T00:25:53.881Z,3.59
2023-03-16T00:28:56.654Z,3.52
2023-03-16T00:31:59.581Z,3.37
2023-03-16T00:35:04.002Z,3.34
2023-03-16T00:38:06.682Z,3.32
2023-03-16T00:41:09.424Z,3.49
2023-03-16T00:44:12.129Z,3.49
2023-03-16T00:47:15.611Z,3.55
2023-03-16T00:50:22.290Z,3.40
2023-03-16T00:53:24.900Z,3.54
2023-03-16T00:56:27.526Z,3.49
2023-03-16T00:59:31.102Z,3.52
2023-03-16T01:02:37.089Z,3.37
2023-03-16T01:05:41.538Z,3.48
2023-03-16T01:08:45.135Z,3.44
2023-03-16T01:11:51.586Z,3.29
2023-03-16T01:14:55.492Z,3.48
2023-03-16T01:17:58.151Z,3.38
2023-03-16T01:21:05.799Z,3.45
2023-03-16T01:24:10.094Z,3.34
2023-03-16T01:27:13.955Z,3.33
2023-03-16T01:30:17.256Z,3.29
2023-03-16T01:33:21.938Z,3.43
2023-03-16T01:36:24.682Z,3.33
2023-03-16T01:39:31.504Z,3.30
2023-03-16T01:42:46.584Z,3.37
2023-03-16T01:46:04.657Z,3.32
2023-03-16T01:49:20.693Z,3.33
2023-03-16T01:52:30.451Z,3.12
2023-03-16T01:55:33.015Z,3.16
2023-03-16T01:58:37.732Z,3.16
2023-03-16T02:01:40.759Z,3.26
2023-03-16T02:04:51.225Z,3.28
2023-03-16T02:07:59.102Z,3.44
2023-03-16T02:11:04.840Z,3.33
2023-03-16T02:14:19.935Z,3.31
2023-03-16T02:17:26.830Z,3.29
2023-03-16T02:20:52.883Z,3.31
2023-03-16T02:23:55.655Z,3.09
2023-03-16T02:27:04.602Z,3.25
2023-03-16T02:30:16.120Z,3.24
2023-03-16T02:33:33.921Z,3.25
2023-03-16T02:36:39.085Z,3.32
2023-03-16T02:39:44.167Z,3.22
2023-03-16T02:42:55.499Z,3.27
2023-03-16T02:46:00.613Z,3.20
2023-03-16T02:49:17.737Z,3.13
2023-03-16T02:52:21.284Z,3.09
2023-03-16T02:55:24.006Z,3.23
2023-03-16T02:58:27.871Z,3.14
2023-03-16T03:01:31.974Z,3.19
2023-03-16T03:04:34.900Z,3.03
2023-03-16T03:07:38.042Z,3.14
2023-03-16T03:10:43.010Z,3.05
2023-03-16T03:13:47.398Z,3.13
2023-03-16T03:16:54.863Z,2.96
2023-03-16T03:19:59.188Z,3.17
2023-03-16T03:23:03.247Z,2.89
2023-03-16T03:26:06.195Z,3.03
2023-03-16T03:29:09.150Z,2.96
2023-03-16T03:32:12.579Z,2.80
2023-03-16T03:35:16.173Z,2.86
2023-03-16T03:38:19.056Z,2.86
2023-03-16T03:41:22.617Z,2.82
2023-03-16T03:44:27.081Z,2.87
2023-03-16T03:47:30.926Z,2.79
2023-03-16T03:50:35.174Z,2.74
2023-03-16T03:54:03.257Z,2.68
2023-03-16T03:57:21.952Z,2.47
2023-03-16T04:00:25.595Z,2.65
2023-03-16T04:03:28.736Z,2.67
2023-03-16T04:06:31.702Z,2.65
2023-03-16T04:09:34.479Z,2.61
2023-03-16T04:12:37.804Z,2.57
2023-03-16T04:15:42.445Z,2.41
2023-03-16T04:18:58.159Z,2.53
2023-03-16T04:22:01.180Z,2.55
2023-03-16T04:25:04.241Z,2.51
2023-03-16T04:28:08.770Z,2.54
2023-03-16T04:31:14.550Z,2.49
2023-03-16T04:34:25.092Z,2.45
2023-03-16T04:37:31.199Z,2.43
2023-03-16T04:40:33.826Z,2.33
2023-03-16T04:43:43.353Z,2.31
2023-03-16T04:46:53.312Z,2.29
2023-03-16T04:49:57.467Z,2.51
2023-03-16T04:53:00.835Z,2.42
2023-03-16T04:56:04.976Z,2.52
2023-03-16T04:59:08.771Z,2.57
2023-03-16T05:02:21.097Z,2.38
2023-03-16T05:05:24.779Z,2.48
2023-03-16T05:08:27.437Z,2.54
2023-03-16T05:11:30.733Z,2.50
2023-03-16T05:14:36.255Z,2.67
2023-03-16T05:18:05.714Z,2.54
2023-03-16T05:21:08.834Z,2.67
2023-03-16T05:24:28.724Z,2.76
2023-03-16T05:27:31.911Z,2.71
2023-03-16T05:30:34.742Z,2.87
2023-03-16T05:33:40.134Z,2.89
2023-03-16T05:36:46.055Z,3.08
2023-03-16T05:39:51.978Z,3.14
2023-03-16T05:42:56.721Z,3.29
2023-03-16T05:46:00.153Z,3.59
2023-03-16T05:49:03.338Z,3.32
2023-03-16T05:52:06.491Z,3.46
2023-03-16T05:55:12.798Z,3.48
2023-03-16T05:58:16.379Z,3.39
2023-03-16T06:01:20.819Z,3.45
2023-03-16T06:04:23.669Z,3.77
2023-03-16T06:07:28.830Z,3.73
2023-03-16T06:10:32.657Z,3.91
2023-03-16T06:13:35.651Z,3.91
2023-03-16T06:16:39.003Z,3.86
2023-03-16T06:19:42.123Z,3.99
2023-03-16T06:22:45.513Z,4.10
2023-03-16T06:25:49.536Z,4.10
2023-03-16T06:28:55.575Z,4.21
2023-03-16T06:31:58.905Z,4.29
2023-03-16T06:35:03.545Z,4.40
2023-03-16T06:38:07.182Z,4.51
2023-03-16T06:41:20.270Z,4.36
2023-03-16T06:44:23.899Z,4.28
2023-03-16T06:47:40.784Z,4.27
2023-03-16T06:50:45.662Z,4.14
2023-03-16T06:53:49.698Z,4.01
2023-03-16T06:56:53.171Z,4.25
2023-03-16T06:59:57.514Z,4.48
2023-03-16T07:03:02.234Z,4.25
2023-03-16T07:06:06.795Z,4.93
2023-03-16T07:09:10.526Z,5.43
2023-03-16T07:12:14.019Z,6.17
2023-03-16T07:15:17.114Z,7.71
2023-03-16T07:18:21.542Z,7.23
2023-03-16T07:21:24.325Z,6.68
2023-03-16T07:24:27.571Z,6.02
2023-03-16T07:27:31.385Z,5.90
2023-03-16T07:30:36.528Z,7.14
2023-03-16T07:33:41.026Z,8.20
2023-03-16T07:36:52.872Z,8.01
2023-03-16T07:39:57.254Z,7.73
2023-03-16T07:43:00.044Z,7.86
2023-03-16T07:46:10.687Z,7.09
2023-03-16T07:49:13.677Z,6.54
2023-03-16T07:52:16.365Z,6.29
2023-03-16T07:55:19.919Z,5.88
2023-03-16T07:58:23.752Z,5.79
2023-03-16T08:01:26.510Z,5.77
2023-03-16T08:04:29.487Z,6.12
2023-03-16T08:07:33.110Z,6.81
2023-03-16T08:10:41.916Z,7.05
2023-03-16T08:13:54.574Z,7.46
2023-03-16T08:16:57.460Z,7.42
2023-03-16T08:20:06.997Z,8.54
2023-03-16T08:23:09.946Z,9.44
2023-03-16T08:26:20.172Z,9.40
2023-03-16T08:29:26.107Z,9.27
2023-03-16T08:32:29.652Z,11.54
2023-03-16T08:35:32.664Z,12.38
2023-03-16T08:38:35.655Z,13.53
2023-03-16T08:41:43.631Z,14.30
2023-03-16T08:44:56.901Z,14.70
2023-03-16T08:48:01.852Z,15.01
2023-03-16T08:51:06.012Z,15.17
2023-03-16T08:54:09.075Z,14.66
2023-03-16T08:57:12.357Z,15.04
2023-03-16T09:00:15.600Z,15.86
2023-03-16T09:03:18.320Z,16.72
2023-03-16T09:06:22.511Z,16.20
2023-03-16T09:09:25.524Z,15.48
2023-03-16T09:12:29.191Z,15.04
2023-03-16T09:15:32.829Z,11.60
2023-03-16T09:18:36.786Z,13.73
2023-03-16T09:21:39.700Z,11.44
2023-03-16T09:24:42.851Z,13.55
2023-03-16T09:27:45.566Z,13.80
2023-03-16T09:30:50.041Z,15.15
2023-03-16T09:33:53.126Z,15.75
2023-03-16T09:36:56.567Z,14.88
2023-03-16T09:40:06.514Z,15.21
2023-03-16T09:43:35.317Z,15.68
2023-03-16T09:46:43.808Z,15.73
2023-03-16T09:49:49.081Z,16.82
2023-03-16T09:52:51.866Z,16.87
2023-03-16T09:56:02.071Z,16.28
2023-03-16T10:04:14.417Z,16.31
2023-03-16T10:07:52.322Z,15.99
2023-03-16T10:11:00.232Z,15.84
2023-03-16T10:15:02.441Z,16.11
2023-03-16T10:18:23.117Z,16.40
2023-03-16T10:21:25.796Z,15.44
2023-03-16T10:25:06.344Z,15.22
2023-03-16T10:28:19.124Z,15.66
2023-03-16T10:31:23.382Z,15.99
2023-03-16T10:34:26.259Z,16.02
2023-03-16T10:37:31.231Z,15.98
2023-03-16T10:40:39.316Z,15.50
2023-03-16T10:43:42.218Z,15.55
2023-03-16T10:46:51.178Z,14.76
2023-03-16T10:49:53.907Z,15.27
2023-03-16T10:52:58.276Z,16.43
2023-03-16T10:56:12.236Z,16.79
2023-03-16T10:59:27.854Z,16.56
2023-03-16T11:02:38.235Z,17.01
2023-03-16T11:05:41.936Z,17.67
2023-03-16T11:08:45.380Z,17.68
2023-03-16T11:11:49.710Z,16.88
2023-03-16T11:14:54.207Z,17.04
2023-03-16T11:17:56.986Z,17.50
2023-03-16T11:21:17.365Z,16.85
2023-03-16T11:24:27.459Z,16.88
2023-03-16T11:27:34.100Z,16.68
2023-03-16T11:30:42.642Z,16.34
2023-03-16T11:33:45.441Z,16.46
2023-03-16T11:36:56.052Z,17.02
2023-03-16T11:40:35.347Z,17.05
2023-03-16T11:43:53.668Z,17.36
2023-03-16T11:47:17.935Z,16.66
2023-03-16T11:50:53.539Z,16.63
2023-03-16T11:54:04.868Z,17.59
2023-03-16T11:57:26.468Z,17.10
2023-03-16T12:00:52.453Z,16.41
2023-03-16T12:04:49.203Z,16.50
2023-03-16T12:08:13.490Z,16.23
2023-03-16T12:11:32.496Z,16.43
2023-03-16T12:14:44.255Z,16.58
2023-03-16T12:17:48.484Z,16.15
2023-03-16T12:20:54.371Z,16.60
2023-03-16T12:24:04.077Z,16.02
2023-03-16T12:27:15.954Z,15.47
2023-03-16T12:30:42.077Z,16.25
2023-03-16T12:34:03.963Z,15.62
2023-03-16T12:37:13.161Z,15.77
2023-03-16T12:40:42.689Z,14.12
2023-03-16T12:44:04.222Z,13.50
2023-03-16T12:47:39.897Z,13.04
2023-03-16T12:50:55.981Z,13.19
2023-03-16T12:53:59.252Z,14.04
2023-03-16T12:57:07.107Z,14.60
2023-03-16T13:00:12.099Z,14.84
2023-03-16T13:03:20.091Z,14.87
2023-03-16T13:06:24.965Z,15.49
2023-03-16T13:09:32.067Z,15.13
2023-03-16T13:12:41.776Z,15.23
2023-03-16T13:15:49.701Z,15.32
2023-03-16T13:18:52.318Z,15.50
2023-03-16T13:22:20.978Z,15.46
2023-03-16T13:25:39.720Z,15.58
2023-03-16T13:28:46.113Z,15.08
2023-03-16T13:31:51.616Z,15.40
2023-03-16T13:34:58.794Z,15.10
2023-03-16T13:38:05.851Z,15.56
2023-03-16T13:41:14.596Z,15.16
2023-03-16T13:44:18.936Z,14.75
2023-03-16T13:47:21.836Z,15.25
2023-03-16T13:50:25.257Z,14.49
2023-03-16T13:53:30.664Z,14.18
2023-03-16T13:56:34.117Z,14.02
2023-03-16T13:59:37.115Z,13.80
2023-03-16T14:02:43.822Z,13.78
2023-03-16T14:05:47.673Z,14.00
2023-03-16T14:08:54.042Z,14.11
2023-03-16T14:11:57.859Z,13.91
2023-03-16T14:15:07.325Z,13.99
2023-03-16T14:18:21.688Z,13.06
2023-03-16T14:21:27.713Z,13.21
2023-03-16T14:24:34.926Z,13.39
2023-03-16T14:27:40.708Z,13.69
2023-03-16T14:31:04.440Z,13.21
2023-03-16T14:34:39.769Z,13.57
2023-03-16T14:37:43.344Z,13.27
2023-03-16T14:40:57.712Z,12.66
2023-03-16T14:44:03.158Z,12.39
2023-03-16T14:47:07.222Z,12.86
2023-03-16T14:50:18.857Z,12.57
2023-03-16T14:53:22.083Z,12.59
2023-03-16T14:56:34.139Z,12.27
2023-03-16T14:59:36.832Z,11.94
2023-03-16T15:02:42.296Z,11.92
2023-03-16T15:05:50.817Z,11.55
2023-03-16T15:08:54.840Z,11.40
2023-03-16T15:11:58.301Z,11.50
2023-03-16T15:15:16.675Z,11.41
2023-03-16T15:18:19.332Z,10.82
2023-03-16T15:21:26.590Z,10.66
2023-03-16T15:24:33.478Z,10.67
2023-03-16T15:27:36.705Z,10.50
2023-03-16T15:30:40.433Z,10.36
2023-03-16T15:33:45.388Z,10.15
2023-03-16T15:36:48.059Z,9.90
2023-03-16T15:39:50.682Z,9.52
2023-03-16T15:42:53.724Z,9.40
2023-03-16T15:45:58.878Z,9.18
2023-03-16T15:49:01.820Z,8.90
2023-03-16T15:52:21.043Z,9.25
2023-03-16T15:55:29.604Z,8.97
2023-03-16T15:58:35.172Z,8.96
2023-03-16T16:01:45.153Z,8.77
2023-03-16T16:04:47.717Z,8.33
2023-03-16T16:07:50.983Z,8.19
2023-03-16T16:10:54.630Z,7.90
2023-03-16T16:13:58.624Z,7.80
2023-03-16T16:17:01.172Z,7.65
2023-03-16T16:20:18.501Z,7.22
2023-03-16T16:23:21.289Z,7.25
2023-03-16T16:26:48.151Z,7.18
2023-03-16T16:29:53.351Z,6.99
2023-03-16T16:32:58.691Z,6.84
2023-03-16T16:36:11.243Z,6.90
2023-03-16T16:39:14.393Z,6.75
2023-03-16T16:42:17.764Z,6.52
2023-03-16T16:45:23.270Z,6.30
2023-03-16T16:48:32.416Z,6.27
2023-03-16T16:51:35.364Z,6.22
2023-03-16T16:54:38.251Z,5.88
2023-03-16T16:57:41.563Z,5.94
2023-03-16T17:00:44.937Z,5.91
2023-03-16T17:03:47.535Z,5.69
2023-03-16T17:06:55.247Z,5.81
2023-03-16T17:09:57.879Z,5.77
2023-03-16T17:13:00.562Z,5.59
2023-03-16T17:16:03.387Z,5.62
2023-03-16T17:19:07.604Z,5.38
2023-03-16T17:22:21.999Z,5.44
2023-03-16T17:25:25.141Z,5.52
2023-03-16T17:28:31.996Z,5.22
2023-03-16T17:31:38.963Z,5.29
2023-03-16T17:34:41.791Z,5.19
2023-03-16T17:37:47.396Z,5.15
2023-03-16T17:40:52.148Z,5.15
2023-03-16T17:43:59.774Z,5.12
2023-03-16T17:47:02.826Z,5.15
2023-03-16T17:50:16.963Z,5.05
2023-03-16T17:53:21.819Z,5.10
2023-03-16T17:56:26.469Z,5.07
2023-03-16T17:59:29.246Z,4.92
2023-03-16T18:02:54.272Z,5.10
2023-03-16T18:05:57.188Z,4.94
2023-03-16T18:09:00.099Z,4.91
2023-03-16T18:12:03.099Z,4.91
2023-03-16T18:15:06.443Z,4.70
2023-03-16T18:18:17.066Z,4.68
2023-03-16T18:21:25.717Z,4.48
2023-03-16T18:24:28.334Z,4.39
2023-03-16T18:27:31.272Z,4.23
2023-03-16T18:30:36.986Z,3.97
2023-03-16T18:33:41.265Z,3.89
2023-03-16T18:36:45.905Z,3.61
2023-03-16T18:39:49.999Z,3.35
2023-03-16T18:42:54.458Z,3.39
2023-03-16T18:45:57.355Z,3.35
2023-03-16T18:49:04.663Z,3.60
2023-03-16T18:52:25.537Z,3.22
2023-03-16T18:55:28.947Z,3.33
2023-03-16T18:58:32.238Z,3.38
2023-03-16T19:01:39.430Z,3.53
2023-03-16T19:04:42.821Z,3.16
2023-03-16T19:07:51.652Z,3.28
2023-03-16T19:10:58.056Z,3.38
2023-03-16T19:14:01.457Z,3.34
2023-03-16T19:17:04.405Z,3.31
2023-03-16T19:20:08.430Z,3.37
2023-03-16T19:23:26.370Z,3.48
2023-03-16T19:26:34.642Z,3.83
2023-03-16T19:29:37.690Z,3.78
2023-03-16T19:32:41.092Z,3.75
2023-03-16T19:35:51.405Z,3.91
2023-03-16T19:38:55.462Z,3.76
2023-03-16T19:41:59.393Z,3.51
2023-03-16T19:45:03.658Z,3.38
2023-03-16T19:48:14.343Z,3.41
2023-03-16T19:51:18.086Z,3.26
2023-03-16T19:54:26.725Z,2.99
2023-03-16T19:57:29.831Z,3.06
2023-03-16T20:00:33.298Z,3.18
2023-03-16T20:03:38.690Z,3.06
2023-03-16T20:06:41.782Z,3.03
2023-03-16T20:09:45.278Z,3.05
2023-03-16T20:12:51.052Z,3.15
2023-03-16T20:15:54.067Z,3.22
2023-03-16T20:18:59.698Z,3.35
2023-03-16T20:22:02.934Z,3.42
2023-03-16T20:25:06.456Z,3.07
2023-03-16T20:28:20.178Z,3.30
2023-03-16T20:31:26.683Z,3.18
2023-03-16T20:34:32.245Z,2.92
2023-03-16T20:37:34.875Z,2.48
2023-03-16T20:40:37.735Z,2.53
2023-03-16T20:43:41.695Z,2.31
2023-03-16T20:46:46.079Z,2.27
2023-03-16T20:49:50.710Z,2.23
2023-03-16T20:52:54.475Z,2.33
2023-03-16T20:55:57.364Z,2.34
2023-03-16T20:59:00.146Z,2.23
2023-03-16T21:02:23.247Z,2.40
2023-03-16T21:05:32.173Z,2.37
2023-03-16T21:08:34.928Z,2.38
2023-03-16T21:11:38.926Z,2.39
2023-03-16T21:14:42.031Z,2.48
2023-03-16T21:17:45.487Z,2.61
2023-03-16T21:20:50.218Z,2.61
2023-03-16T21:23:52.889Z,2.53
2023-03-16T21:26:55.508Z,2.36
2023-03-16T21:30:02.498Z,2.40
2023-03-16T21:33:18.512Z,2.42
2023-03-16T21:36:23.986Z,2.30
2023-03-16T21:39:26.600Z,2.29
2023-03-16T21:42:29.682Z,2.52
2023-03-16T21:45:32.455Z,2.28
2023-03-16T21:48:40.250Z,2.49
2023-03-16T21:51:43.719Z,2.54
2023-03-16T21:54:46.348Z,2.41
2023-03-16T21:57:49.626Z,2.40
2023-03-16T22:00:53.589Z,2.72
2023-03-16T22:03:58.532Z,2.76
2023-03-16T22:07:01.113Z,2.72
2023-03-16T22:10:14.652Z,2.17
2023-03-16T22:13:19.276Z,2.21
2023-03-16T22:16:24.500Z,1.98
2023-03-16T22:19:30.080Z,2.17
2023-03-16T22:22:33.177Z,2.22
2023-03-16T22:25:35.776Z,2.27
2023-03-16T22:28:38.432Z,2.17
2023-03-16T22:31:41.408Z,2.39
2023-03-16T22:34:53.621Z,2.45
2023-03-16T22:37:58.027Z,2.46
2023-03-16T22:41:00.716Z,2.64
2023-03-16T22:44:04.261Z,2.63
2023-03-16T22:47:20.967Z,2.51
2023-03-16T22:50:27.670Z,2.22
2023-03-16T22:53:37.323Z,2.46
2023-03-16T22:56:42.188Z,2.23
2023-03-16T22:59:46.963Z,2.16
2023-03-16T23:02:49.919Z,2.04
2023-03-16T23:05:53.250Z,1.92
2023-03-16T23:08:56.355Z,1.96
2023-03-16T23:11:59.569Z,2.12
2023-03-16T23:15:02.167Z,2.01
2023-03-16T23:18:22.507Z,2.12
2023-03-16T23:21:26.408Z,1.96
2023-03-16T23:24:29.528Z,2.07
2023-03-16T23:27:32.282Z,2.18
2023-03-16T23:30:35.305Z,2.17
2023-03-16T23:33:38.509Z,1.99
2023-03-16T23:36:41.380Z,2.23
2023-03-16T23:39:44.044Z,2.11
2023-03-16T23:42:47.181Z,1.98
2023-03-16T23:45:49.850Z,2.02
2023-03-16T23:48:55.803Z,2.22
2023-03-16T23:52:00.121Z,2.32
2023-03-16T23:55:02.775Z,2.15
2023-03-16T23:58:05.430Z,2.34
